createdAt,value
2018-09-16T00:00:40.347Z,12.37
2018-09-16T00:01:40.345Z,12.46
2018-09-16T00:02:40.074Z,12.32
2018-09-16T00:03:40.318Z,12.32
2018-09-16T00:04:40.315Z,12.37
2018-09-16T00:05:40.055Z,12.45
2018-09-16T00:06:40.297Z,12.38
2018-09-16T00:07:40.285Z,12.32
2018-09-16T00:08:40.279Z,12.37
2018-09-16T00:09:40.023Z,12.37
2018-09-16T00:10:40.265Z,12.24
2018-09-16T00:11:40.256Z,12.32
2018-09-16T00:12:40.253Z,12.32
2018-09-16T00:13:40.243Z,12.23
2018-09-16T00:14:40.363Z,12.23
2018-09-16T00:15:40.228Z,12.29
2018-09-16T00:16:40.218Z,12.28
2018-09-16T00:17:39.959Z,12.28
2018-09-16T00:18:40.204Z,12.21
2018-09-16T00:19:40.197Z,12.27
2018-09-16T00:20:39.941Z,12.24
2018-09-16T00:21:39.927Z,12.2
2018-09-16T00:22:40.172Z,12.12
2018-09-16T00:23:40.165Z,12.14
2018-09-16T00:24:40.212Z,12.2
2018-09-16T00:25:40.152Z,12.12
2018-09-16T00:26:40.160Z,12.19
2018-09-16T00:27:39.883Z,12.19
2018-09-16T00:28:40.123Z,12.12
2018-09-16T00:29:40.118Z,12.19
2018-09-16T00:30:40.111Z,12.19
2018-09-16T00:31:40.101Z,12.14
2018-09-16T00:32:40.099Z,12.14
2018-09-16T00:33:40.089Z,12.1
2018-09-16T00:34:39.830Z,12.14
2018-09-16T00:35:39.819Z,12.07
2018-09-16T00:36:40.064Z,12.09
2018-09-16T00:37:40.055Z,12.05
2018-09-16T00:38:40.048Z,12.19
2018-09-16T00:39:40.044Z,12.05
2018-09-16T00:40:40.033Z,12.05
2018-09-16T00:41:40.027Z,12.05
2018-09-16T00:42:40.018Z,12.09
2018-09-16T00:43:40.010Z,12.09
2018-09-16T00:44:40.002Z,12.12
2018-09-16T00:45:39.992Z,12.07
2018-09-16T00:46:39.736Z,12.1
2018-09-16T00:47:39.977Z,12.13
2018-09-16T00:48:39.969Z,12.14
2018-09-16T00:49:39.966Z,12.02
2018-09-16T00:50:39.998Z,12.01
2018-09-16T00:51:39.947Z,12.02
2018-09-16T00:52:39.937Z,12.07
2018-09-16T00:53:39.682Z,11.98
2018-09-16T00:54:39.932Z,12.01
2018-09-16T00:55:39.915Z,11.98
2018-09-16T00:56:39.908Z,12.01
2018-09-16T00:57:39.897Z,12.01
2018-09-16T00:58:39.645Z,12.04
2018-09-16T00:59:39.889Z,11.99
2018-09-16T01:00:39.623Z,12.04
2018-09-16T01:01:39.868Z,11.96
2018-09-16T01:02:39.612Z,12.01
2018-09-16T01:03:39.853Z,11.98
2018-09-16T01:04:39.841Z,11.95
2018-09-16T01:05:39.835Z,11.98
2018-09-16T01:06:39.827Z,11.98
2018-09-16T01:07:39.871Z,12.01
2018-09-16T01:08:39.812Z,12.01
2018-09-16T01:09:39.813Z,12.04
2018-09-16T01:10:39.794Z,11.95
2018-09-16T01:11:39.792Z,12.04
2018-09-16T01:12:39.779Z,12.01
2018-09-16T01:13:39.774Z,11.99
2018-09-16T01:14:39.763Z,12.01
2018-09-16T01:15:39.760Z,12.02
2018-09-16T01:16:39.747Z,12.07
2018-09-16T01:17:39.764Z,11.98
2018-09-16T01:18:39.479Z,12.07
2018-09-16T01:19:39.477Z,12.14
2018-09-16T01:20:39.724Z,12.14
2018-09-16T01:21:39.462Z,12.09
2018-09-16T01:22:39.701Z,11.99
2018-09-16T01:23:39.691Z,12.04
2018-09-16T01:24:39.681Z,11.98
2018-09-16T01:25:39.681Z,12.01
2018-09-16T01:26:39.682Z,12.02
2018-09-16T01:27:39.662Z,11.98
2018-09-16T01:28:39.651Z,11.99
2018-09-16T01:29:39.394Z,11.99
2018-09-16T01:30:39.383Z,12.01
2018-09-16T01:31:39.632Z,11.88
2018-09-16T01:32:39.118Z,11.95
2018-09-16T01:33:39.360Z,12.04
2018-09-16T01:34:39.616Z,11.96
2018-09-16T01:35:39.594Z,11.83
2018-09-16T01:36:39.587Z,11.86
2018-09-16T01:37:39.579Z,11.88
2018-09-16T01:38:39.574Z,11.9
2018-09-16T01:39:39.311Z,11.83
2018-09-16T01:40:39.564Z,11.8
2018-09-16T01:41:39.549Z,11.8
2018-09-16T01:43:39.531Z,11.86
2018-09-16T01:44:39.551Z,11.85
2018-09-16T01:45:39.513Z,11.82
2018-09-16T01:46:39.505Z,11.86
2018-09-16T01:47:39.004Z,11.76
2018-09-16T01:48:38.986Z,11.82
2018-09-16T01:49:39.485Z,11.82
2018-09-16T01:50:39.526Z,11.73
2018-09-16T01:51:39.213Z,11.78
2018-09-16T01:52:39.457Z,11.75
2018-09-16T01:53:39.451Z,11.86
2018-09-16T01:54:39.442Z,11.79
2018-09-16T01:55:39.440Z,11.85
2018-09-16T01:56:39.175Z,11.73
2018-09-16T01:57:39.418Z,11.8
2018-09-16T01:58:39.409Z,11.76
2018-09-16T01:59:39.405Z,11.86
2018-09-16T02:00:39.145Z,11.79
2018-09-16T02:01:39.388Z,11.85
2018-09-16T02:02:39.382Z,11.85
2018-09-16T02:03:39.374Z,11.78
2018-09-16T02:04:39.360Z,11.82
2018-09-16T02:05:39.360Z,11.79
2018-09-16T02:06:39.344Z,11.76
2018-09-16T02:07:39.336Z,11.73
2018-09-16T02:08:39.328Z,11.75
2018-09-16T02:09:39.323Z,11.7
2018-09-16T02:10:39.311Z,11.73
2018-09-16T02:11:39.303Z,11.73
2018-09-16T02:12:39.305Z,11.72
2018-09-16T02:13:39.287Z,11.7
2018-09-16T02:14:39.278Z,11.75
2018-09-16T02:15:39.275Z,11.7
2018-09-16T02:16:39.017Z,11.52
2018-09-16T02:17:39.254Z,11.64
2018-09-16T02:18:39.246Z,11.6
2018-09-16T02:19:39.237Z,11.55
2018-09-16T02:20:39.233Z,11.55
2018-09-16T02:21:38.975Z,11.6
2018-09-16T02:22:39.217Z,11.6
2018-09-16T02:23:39.204Z,11.51
2018-09-16T02:24:38.952Z,11.49
2018-09-16T02:25:38.935Z,11.52
2018-09-16T02:26:39.181Z,11.65
2018-09-16T02:27:39.173Z,11.6
2018-09-16T02:28:39.167Z,11.54
2018-09-16T02:29:39.217Z,11.61
2018-09-16T02:30:39.149Z,11.57
2018-09-16T02:31:39.145Z,11.52
2018-09-16T02:32:38.878Z,11.61
2018-09-16T02:33:39.128Z,11.52
2018-09-16T02:34:39.127Z,11.52
2018-09-16T02:35:38.855Z,11.6
2018-09-16T02:36:38.848Z,11.61
2018-09-16T02:37:39.092Z,11.54
2018-09-16T02:38:39.086Z,11.6
2018-09-16T02:39:39.080Z,11.51
2018-09-16T02:40:39.073Z,11.57
2018-09-16T02:41:39.086Z,11.55
2018-09-16T02:42:39.050Z,11.52
2018-09-16T02:43:38.896Z,11.52
2018-09-16T02:44:39.034Z,11.46
2018-09-16T02:45:38.777Z,11.55
2018-09-16T02:46:39.015Z,11.49
2018-09-16T02:47:38.754Z,11.52
2018-09-16T02:48:38.999Z,11.52
2018-09-16T02:49:38.740Z,11.55
2018-09-16T02:50:39.233Z,11.6
2018-09-16T02:51:38.975Z,11.69
2018-09-16T02:52:38.969Z,11.72
2018-09-16T02:53:38.959Z,11.72
2018-09-16T02:54:38.951Z,11.7
2018-09-16T02:55:38.698Z,11.79
2018-09-16T02:56:38.933Z,11.8
2018-09-16T02:57:38.675Z,11.79
2018-09-16T02:58:38.665Z,11.83
2018-09-16T02:59:38.662Z,11.85
2018-09-16T03:00:39.126Z,11.83
2018-09-16T03:01:38.658Z,11.83
2018-09-16T03:02:38.890Z,11.91
2018-09-16T03:03:38.886Z,11.99
2018-09-16T03:04:38.620Z,11.91
2018-09-16T03:05:38.612Z,12.02
2018-09-16T03:06:38.851Z,11.96
2018-09-16T03:07:38.843Z,11.98
2018-09-16T03:08:38.840Z,11.99
2018-09-16T03:09:38.585Z,12.02
2018-09-16T03:10:38.567Z,11.98
2018-09-16T03:11:39.395Z,11.96
2018-09-16T03:12:38.808Z,12.04
2018-09-16T03:13:38.805Z,12.02
2018-09-16T03:14:38.789Z,12.05
2018-09-16T03:15:38.778Z,11.98
2018-09-16T03:16:38.772Z,12.02
2018-09-16T03:17:38.509Z,12.01
2018-09-16T03:18:38.951Z,12.05
2018-09-16T03:19:38.750Z,12.05
2018-09-16T03:20:38.739Z,11.91
2018-09-16T03:21:38.994Z,11.9
2018-09-16T03:22:38.721Z,11.95
2018-09-16T03:23:38.466Z,11.99
2018-09-16T03:24:38.712Z,11.91
2018-09-16T03:25:38.703Z,12.02
2018-09-16T03:26:38.704Z,11.85
2018-09-16T03:27:38.429Z,11.82
2018-09-16T03:28:38.420Z,11.9
2018-09-16T03:29:38.667Z,11.83
2018-09-16T03:30:38.662Z,11.8
2018-09-16T03:31:38.406Z,11.83
2018-09-16T03:32:38.390Z,11.82
2018-09-16T03:33:38.380Z,11.82
2018-09-16T03:34:38.640Z,11.85
2018-09-16T03:35:38.614Z,11.83
2018-09-16T03:36:38.360Z,11.82
2018-09-16T03:37:38.350Z,11.73
2018-09-16T03:38:38.593Z,11.83
2018-09-16T03:39:38.337Z,11.76
2018-09-16T03:40:38.584Z,11.7
2018-09-16T03:41:38.568Z,11.76
2018-09-16T03:42:38.559Z,11.73
2018-09-16T03:43:38.552Z,11.7
2018-09-16T03:44:38.545Z,11.7
2018-09-16T03:45:38.546Z,11.67
2018-09-16T03:46:38.561Z,11.62
2018-09-16T03:47:38.520Z,11.55
2018-09-16T03:48:38.262Z,11.58
2018-09-16T03:49:38.504Z,11.57
2018-09-16T03:50:38.606Z,11.54
2018-09-16T03:51:38.527Z,11.51
2018-09-16T03:52:38.733Z,11.51
2018-09-16T03:53:38.470Z,11.52
2018-09-16T03:54:37.957Z,11.51
2018-09-16T03:55:38.201Z,11.42
2018-09-16T03:56:38.446Z,11.43
2018-09-16T03:57:39.236Z,11.46
2018-09-16T03:58:38.430Z,11.44
2018-09-16T03:59:38.421Z,11.36
2018-09-16T04:00:38.411Z,11.43
2018-09-16T04:01:38.402Z,11.36
2018-09-16T04:02:38.145Z,11.4
2018-09-16T04:03:38.387Z,11.37
2018-09-16T04:04:38.376Z,11.4
2018-09-16T04:05:38.382Z,11.25
2018-09-16T04:06:38.361Z,11.24
2018-09-16T04:07:38.101Z,11.32
2018-09-16T04:08:38.092Z,11.29
2018-09-16T04:09:38.336Z,11.22
2018-09-16T04:10:38.327Z,11.29
2018-09-16T04:11:38.355Z,11.35
2018-09-16T04:12:38.064Z,11.35
2018-09-16T04:13:38.310Z,11.32
2018-09-16T04:14:38.296Z,11.28
2018-09-16T04:15:38.287Z,11.36
2018-09-16T04:16:38.285Z,11.29
2018-09-16T04:17:38.268Z,11.29
2018-09-16T04:18:38.269Z,11.27
2018-09-16T04:19:38.251Z,11.29
2018-09-16T04:20:38.243Z,11.32
2018-09-16T04:21:38.234Z,11.22
2018-09-16T04:22:37.976Z,11.24
2018-09-16T04:23:38.217Z,11.27
2018-09-16T04:24:38.209Z,11.29
2018-09-16T04:25:38.213Z,11.22
2018-09-16T04:26:38.196Z,11.22
2018-09-16T04:27:37.932Z,11.27
2018-09-16T04:28:38.189Z,11.18
2018-09-16T04:29:37.914Z,11.15
2018-09-16T04:30:38.159Z,11.17
2018-09-16T04:31:37.907Z,11.28
2018-09-16T04:32:38.143Z,11.19
2018-09-16T04:33:38.372Z,11.24
2018-09-16T04:34:38.125Z,11.14
2018-09-16T04:35:38.116Z,11.27
2018-09-16T04:36:38.110Z,11.28
2018-09-16T04:37:38.097Z,11.22
2018-09-16T04:38:38.094Z,11.24
2018-09-16T04:39:38.085Z,11.22
2018-09-16T04:40:38.076Z,11.17
2018-09-16T04:41:37.815Z,11.24
2018-09-16T04:42:37.803Z,11.27
2018-09-16T04:43:37.796Z,11.32
2018-09-16T04:44:38.040Z,11.32
2018-09-16T04:45:38.031Z,11.27
2018-09-16T04:46:38.022Z,11.27
2018-09-16T04:47:38.014Z,11.32
2018-09-16T04:48:38.011Z,11.36
2018-09-16T04:49:38.000Z,11.29
2018-09-16T04:50:37.986Z,11.32
2018-09-16T04:51:37.982Z,11.24
2018-09-16T04:52:37.974Z,11.33
2018-09-16T04:53:37.963Z,11.32
2018-09-16T04:54:37.960Z,11.46
2018-09-16T04:55:37.948Z,11.37
2018-09-16T04:56:37.936Z,11.4
2018-09-16T04:57:37.930Z,11.44
2018-09-16T04:58:37.925Z,11.46
2018-09-16T04:59:37.912Z,11.55
2018-09-16T05:00:37.914Z,11.6
2018-09-16T05:01:37.648Z,11.64
2018-09-16T05:02:37.635Z,11.76
2018-09-16T05:03:37.625Z,11.78
2018-09-16T05:04:37.872Z,11.78
2018-09-16T05:05:37.610Z,11.85
2018-09-16T05:06:37.853Z,11.82
2018-09-16T05:07:37.843Z,12.01
2018-09-16T05:08:37.839Z,11.99
2018-09-16T05:09:37.829Z,12.1
2018-09-16T05:10:38.270Z,12.14
2018-09-16T05:11:37.812Z,12.23
2018-09-16T05:12:37.805Z,12.41
2018-09-16T05:13:37.557Z,12.45
2018-09-16T05:14:37.548Z,12.5
2018-09-16T05:15:37.784Z,12.59
2018-09-16T05:16:37.773Z,12.67
2018-09-16T05:17:37.767Z,12.74
2018-09-16T05:18:37.759Z,12.86
2018-09-16T05:19:37.753Z,12.83
2018-09-16T05:20:37.743Z,13
2018-09-16T05:21:37.737Z,13.01
2018-09-16T05:22:37.923Z,13.12
2018-09-16T05:23:37.728Z,13.23
2018-09-16T05:24:37.716Z,13.22
2018-09-16T05:25:37.457Z,13.32
2018-09-16T05:26:37.701Z,13.28
2018-09-16T05:27:37.447Z,13.41
2018-09-16T05:28:37.434Z,13.45
2018-09-16T05:29:37.678Z,13.39
2018-09-16T05:30:37.677Z,13.52
2018-09-16T05:31:37.849Z,13.55
2018-09-16T05:32:37.659Z,13.52
2018-09-16T05:33:37.403Z,13.6
2018-09-16T05:34:37.394Z,13.69
2018-09-16T05:35:37.639Z,13.67
2018-09-16T05:36:37.380Z,13.78
2018-09-16T05:37:37.628Z,13.87
2018-09-16T05:38:37.367Z,13.88
2018-09-16T05:39:37.612Z,14.04
2018-09-16T05:40:37.606Z,14.07
2018-09-16T05:41:37.607Z,14.09
2018-09-16T05:42:37.348Z,14.18
2018-09-16T05:43:37.585Z,14.33
2018-09-16T05:44:37.582Z,14.36
2018-09-16T05:45:37.574Z,14.37
2018-09-16T05:46:37.313Z,14.68
2018-09-16T05:47:37.561Z,14.72
2018-09-16T05:48:37.568Z,14.84
2018-09-16T05:49:37.562Z,15.01
2018-09-16T05:50:37.293Z,15.21
2018-09-16T05:51:37.537Z,15.32
2018-09-16T05:52:37.617Z,15.49
2018-09-16T05:53:38.167Z,15.47
2018-09-16T05:54:37.526Z,15.74
2018-09-16T05:55:37.560Z,16
2018-09-16T05:56:37.526Z,16.05
2018-09-16T05:57:37.504Z,16.33
2018-09-16T05:58:37.503Z,16.58
2018-09-16T05:59:37.556Z,16.71
2018-09-16T06:00:37.495Z,16.97
2018-09-16T06:01:37.493Z,17.15
2018-09-16T06:02:37.482Z,17.37
2018-09-16T06:03:37.482Z,17.58
2018-09-16T06:04:37.571Z,17.7
2018-09-16T06:05:37.469Z,17.9
2018-09-16T06:06:37.464Z,18.17
2018-09-16T06:07:37.463Z,18.18
2018-09-16T06:08:37.465Z,18.3
2018-09-16T06:09:37.461Z,18.41
2018-09-16T06:10:37.452Z,18.58
2018-09-16T06:11:37.449Z,18.82
2018-09-16T06:12:37.445Z,19.02
2018-09-16T06:13:37.442Z,19.08
2018-09-16T06:14:37.440Z,19.41
2018-09-16T06:15:37.443Z,19.55
2018-09-16T06:16:37.434Z,19.71
2018-09-16T06:17:37.434Z,19.91
2018-09-16T06:18:37.431Z,20.16
2018-09-16T06:19:37.467Z,20.24
2018-09-16T06:20:37.429Z,20.55
2018-09-16T06:21:37.425Z,20.74
2018-09-16T06:22:37.515Z,20.94
2018-09-16T06:23:37.172Z,21.16
2018-09-16T06:24:37.172Z,21.29
2018-09-16T06:25:37.429Z,21.47
2018-09-16T06:26:37.166Z,21.62
2018-09-16T06:27:37.169Z,21.84
2018-09-16T06:28:37.417Z,22
2018-09-16T06:29:37.420Z,22.15
2018-09-16T06:30:37.470Z,22.35
2018-09-16T06:31:37.414Z,22.54
2018-09-16T06:32:37.421Z,22.72
2018-09-16T06:33:37.675Z,22.9
2018-09-16T06:34:37.418Z,23.04
2018-09-16T06:35:37.167Z,23.13
2018-09-16T06:36:37.419Z,23.19
2018-09-16T06:37:37.170Z,23.42
2018-09-16T06:38:37.173Z,23.61
2018-09-16T06:39:37.423Z,23.7
2018-09-16T06:40:37.425Z,23.79
2018-09-16T06:41:37.432Z,24.06
2018-09-16T06:42:37.433Z,24.1
2018-09-16T06:43:37.441Z,24.18
2018-09-16T06:44:37.429Z,24.34
2018-09-16T06:45:37.435Z,24.45
2018-09-16T06:46:37.186Z,24.64
2018-09-16T06:47:37.444Z,24.71
2018-09-16T06:48:37.447Z,24.71
2018-09-16T06:49:37.449Z,24.98
2018-09-16T06:50:37.452Z,25.1
2018-09-16T06:51:37.453Z,25.24
2018-09-16T06:52:37.462Z,25.35
2018-09-16T06:53:37.459Z,25.32
2018-09-16T06:54:37.549Z,25.52
2018-09-16T06:56:37.473Z,25.7
2018-09-16T06:57:37.225Z,25.75
2018-09-16T06:58:37.479Z,25.87
2018-09-16T06:59:37.739Z,25.91
2018-09-16T07:00:37.008Z,26.05
2018-09-16T07:01:37.505Z,26.05
2018-09-16T07:02:37.499Z,26.3
2018-09-16T07:03:37.499Z,26.4
2018-09-16T07:04:37.504Z,26.57
2018-09-16T07:05:37.510Z,26.72
2018-09-16T07:06:37.513Z,26.81
2018-09-16T07:07:37.520Z,26.91
2018-09-16T07:08:37.528Z,27.03
2018-09-16T07:09:37.531Z,27.13
2018-09-16T07:10:37.537Z,27.13
2018-09-16T07:11:37.543Z,27.22
2018-09-16T07:12:37.554Z,27.41
2018-09-16T07:13:37.551Z,27.41
2018-09-16T07:14:37.832Z,27.5
2018-09-16T07:15:37.316Z,27.54
2018-09-16T07:16:37.320Z,27.54
2018-09-16T07:17:37.577Z,27.63
2018-09-16T07:18:37.081Z,27.72
2018-09-16T07:19:37.592Z,27.79
2018-09-16T07:21:37.611Z,27.92
2018-09-16T07:22:37.370Z,27.9
2018-09-16T07:23:37.629Z,27.9
2018-09-16T07:24:37.626Z,27.9
2018-09-16T07:25:37.635Z,27.84
2018-09-16T07:26:37.667Z,27.92
2018-09-16T07:27:37.650Z,27.97
2018-09-16T07:28:37.657Z,28.11
2018-09-16T07:29:37.671Z,28.06
2018-09-16T07:30:37.670Z,28.19
2018-09-16T07:31:37.687Z,28.17
2018-09-16T07:32:37.692Z,28.25
2018-09-16T07:33:37.815Z,28.25
2018-09-16T07:34:37.710Z,28.25
2018-09-16T07:35:37.716Z,28.34
2018-09-16T07:36:37.722Z,28.4
2018-09-16T07:37:37.730Z,28.46
2018-09-16T07:38:37.737Z,28.44
2018-09-16T07:39:37.747Z,28.4
2018-09-16T07:40:37.758Z,28.29
2018-09-16T07:41:37.765Z,28.21
2018-09-16T07:42:37.518Z,28.21
2018-09-16T07:43:37.776Z,28.19
2018-09-16T07:44:37.534Z,28.21
2018-09-16T07:45:37.793Z,28.21
2018-09-16T07:46:37.801Z,28.18
2018-09-16T07:47:37.809Z,28.06
2018-09-16T07:48:37.817Z,27.96
2018-09-16T07:49:37.825Z,27.92
2018-09-16T07:50:37.833Z,27.69
2018-09-16T07:51:38.094Z,27.66
2018-09-16T07:52:37.847Z,27.59
2018-09-16T07:53:37.855Z,27.59
2018-09-16T07:54:37.608Z,27.5
2018-09-16T07:55:37.870Z,27.39
2018-09-16T07:56:37.923Z,27.24
2018-09-16T07:57:37.376Z,27.1
2018-09-16T07:58:37.638Z,27
2018-09-16T07:59:37.643Z,26.97
2018-09-16T08:00:38.094Z,26.84
2018-09-16T08:01:37.659Z,26.7
2018-09-16T08:02:37.917Z,26.67
2018-09-16T08:03:37.920Z,26.5
2018-09-16T08:04:37.675Z,26.36
2018-09-16T08:05:37.860Z,26.29
2018-09-16T08:06:37.946Z,26.09
2018-09-16T08:07:37.692Z,25.92
2018-09-16T08:08:37.949Z,25.85
2018-09-16T08:09:37.713Z,25.69
2018-09-16T08:10:37.707Z,25.64
2018-09-16T08:11:37.964Z,25.45
2018-09-16T08:12:37.464Z,25.33
2018-09-16T08:13:38.049Z,25.2
2018-09-16T08:14:37.475Z,25.08
2018-09-16T08:15:38.034Z,25.06
2018-09-16T08:16:37.991Z,24.91
2018-09-16T08:17:37.993Z,24.83
2018-09-16T08:18:37.996Z,24.81
2018-09-16T08:19:37.996Z,24.85
2018-09-16T08:20:37.998Z,24.84
2018-09-16T08:21:38.004Z,24.77
2018-09-16T08:22:37.756Z,24.68
2018-09-16T08:23:38.006Z,24.64
2018-09-16T08:24:37.760Z,24.65
2018-09-16T08:25:38.009Z,24.62
2018-09-16T08:26:38.020Z,24.61
2018-09-16T08:27:38.057Z,24.57
2018-09-16T08:28:38.449Z,24.49
2018-09-16T08:29:38.025Z,24.43
2018-09-16T08:30:38.019Z,24.34
2018-09-16T08:31:37.771Z,24.34
2018-09-16T08:32:38.026Z,24.34
2018-09-16T08:33:38.027Z,24.31
2018-09-16T08:34:38.033Z,24.25
2018-09-16T08:35:38.028Z,24.21
2018-09-16T08:36:37.776Z,24.15
2018-09-16T08:37:37.780Z,24.24
2018-09-16T08:38:38.031Z,24.16
2018-09-16T08:39:38.031Z,24.16
2018-09-16T08:40:38.034Z,24.18
2018-09-16T08:41:38.042Z,24.21
2018-09-16T08:42:38.039Z,24.18
2018-09-16T08:43:38.045Z,24.12
2018-09-16T08:44:38.042Z,24.05
2018-09-16T08:45:38.275Z,23.94
2018-09-16T08:46:38.045Z,23.95
2018-09-16T08:47:38.040Z,23.95
2018-09-16T08:48:38.043Z,23.8
2018-09-16T08:49:38.041Z,23.85
2018-09-16T08:50:37.790Z,23.87
2018-09-16T08:51:38.045Z,23.9
2018-09-16T08:52:38.048Z,23.8
2018-09-16T08:53:38.044Z,23.84
2018-09-16T08:54:38.046Z,23.8
2018-09-16T08:55:38.049Z,23.84
2018-09-16T08:56:38.045Z,23.75
2018-09-16T08:57:38.045Z,23.66
2018-09-16T08:58:38.448Z,23.6
2018-09-16T08:59:38.062Z,23.63
2018-09-16T09:00:37.801Z,23.58
2018-09-16T09:01:38.048Z,23.51
2018-09-16T09:02:38.051Z,23.5
2018-09-16T09:03:37.803Z,23.43
2018-09-16T09:04:38.050Z,23.48
2018-09-16T09:05:38.050Z,23.42
2018-09-16T09:06:38.047Z,23.42
2018-09-16T09:07:38.050Z,23.4
2018-09-16T09:08:38.047Z,23.43
2018-09-16T09:09:38.049Z,23.43
2018-09-16T09:10:38.107Z,23.4
2018-09-16T09:11:37.798Z,23.43
2018-09-16T09:12:38.058Z,23.31
2018-09-16T09:13:37.797Z,23.39
2018-09-16T09:14:38.053Z,23.39
2018-09-16T09:15:38.049Z,23.38
2018-09-16T09:16:38.047Z,23.39
2018-09-16T09:17:38.048Z,23.5
2018-09-16T09:18:38.055Z,23.43
2018-09-16T09:19:38.050Z,23.47
2018-09-16T09:20:38.048Z,23.32
2018-09-16T09:21:38.046Z,23.35
2018-09-16T09:22:37.794Z,23.33
2018-09-16T09:23:38.047Z,23.32
2018-09-16T09:24:37.793Z,23.48
2018-09-16T09:25:38.048Z,23.46
2018-09-16T09:26:38.048Z,23.58
2018-09-16T09:27:38.044Z,23.63
2018-09-16T09:28:38.048Z,23.7
2018-09-16T09:29:38.051Z,23.78
2018-09-16T09:30:38.051Z,23.93
2018-09-16T09:31:38.043Z,23.95
2018-09-16T09:32:37.792Z,24.02
2018-09-16T09:33:38.042Z,23.94
2018-09-16T09:34:38.044Z,23.93
2018-09-16T09:35:37.887Z,23.9
2018-09-16T09:36:38.049Z,23.84
2018-09-16T09:37:38.043Z,23.8
2018-09-16T09:38:38.049Z,23.79
2018-09-16T09:39:38.043Z,23.79
2018-09-16T09:40:38.046Z,23.79
2018-09-16T09:41:37.791Z,23.78
2018-09-16T09:42:38.155Z,23.84
2018-09-16T09:43:38.042Z,23.79
2018-09-16T09:44:37.792Z,23.83
2018-09-16T09:45:38.041Z,23.8
2018-09-16T09:46:37.791Z,23.8
2018-09-16T09:47:38.044Z,23.85
2018-09-16T09:48:38.041Z,23.93
2018-09-16T09:49:37.795Z,23.94
2018-09-16T09:50:37.538Z,24.05
2018-09-16T09:51:37.787Z,24.15
2018-09-16T09:52:38.040Z,24.21
2018-09-16T09:53:38.167Z,24.27
2018-09-16T09:54:38.056Z,24.35
2018-09-16T09:55:38.041Z,24.47
2018-09-16T09:56:38.037Z,24.5
2018-09-16T09:57:38.042Z,24.6
2018-09-16T09:58:38.043Z,24.64
2018-09-16T09:59:38.039Z,24.61
2018-09-16T10:00:38.050Z,24.71
2018-09-16T10:01:38.038Z,24.71
2018-09-16T10:02:37.788Z,24.77
2018-09-16T10:03:38.050Z,24.85
2018-09-16T10:04:38.039Z,24.9
2018-09-16T10:05:38.037Z,25
2018-09-16T10:06:37.801Z,25.05
2018-09-16T10:07:38.041Z,25.15
2018-09-16T10:08:38.054Z,25.13
2018-09-16T10:09:38.044Z,25.08
2018-09-16T10:10:37.787Z,25.09
2018-09-16T10:11:38.046Z,25.05
2018-09-16T10:12:38.045Z,24.98
2018-09-16T10:13:38.040Z,24.99
2018-09-16T10:14:38.175Z,24.95
2018-09-16T10:15:38.049Z,24.83
2018-09-16T10:16:38.042Z,24.83
2018-09-16T10:17:38.046Z,24.85
2018-09-16T10:18:38.054Z,24.76
2018-09-16T10:19:38.044Z,24.71
2018-09-16T10:20:38.043Z,24.71
2018-09-16T10:21:38.053Z,24.73
2018-09-16T10:22:38.178Z,24.69
2018-09-16T10:23:38.048Z,24.68
2018-09-16T10:24:38.051Z,24.64
2018-09-16T10:25:38.049Z,24.62
2018-09-16T10:26:38.099Z,24.52
2018-09-16T10:27:38.047Z,24.47
2018-09-16T10:28:38.047Z,24.47
2018-09-16T10:29:38.050Z,24.55
2018-09-16T10:30:38.058Z,24.49
2018-09-16T10:31:38.045Z,24.43
2018-09-16T10:32:38.048Z,24.35
2018-09-16T10:33:37.796Z,24.35
2018-09-16T10:34:38.054Z,24.34
2018-09-16T10:35:37.798Z,24.32
2018-09-16T10:36:38.047Z,24.3
2018-09-16T10:37:37.797Z,24.28
2018-09-16T10:38:38.077Z,24.25
2018-09-16T10:39:38.068Z,24.28
2018-09-16T10:40:37.800Z,24.42
2018-09-16T10:41:38.055Z,24.39
2018-09-16T10:42:38.052Z,24.4
2018-09-16T10:43:38.059Z,24.42
2018-09-16T10:44:38.053Z,24.42
2018-09-16T10:45:38.052Z,24.39
2018-09-16T10:46:38.058Z,24.4
2018-09-16T10:47:38.052Z,24.39
2018-09-16T10:48:38.055Z,24.43
2018-09-16T10:49:38.053Z,24.45
2018-09-16T10:50:38.054Z,24.47
2018-09-16T10:51:38.057Z,24.52
2018-09-16T10:52:38.059Z,24.52
2018-09-16T10:53:37.810Z,24.53
2018-09-16T10:54:37.804Z,24.5
2018-09-16T10:55:38.052Z,24.62
2018-09-16T10:56:38.056Z,24.69
2018-09-16T10:57:38.054Z,24.84
2018-09-16T10:58:37.813Z,24.88
2018-09-16T10:59:37.801Z,24.96
2018-09-16T11:00:38.108Z,25.05
2018-09-16T11:01:38.053Z,25.06
2018-09-16T11:02:38.061Z,25.02
2018-09-16T11:03:37.804Z,24.96
2018-09-16T11:04:38.055Z,24.93
2018-09-16T11:05:38.057Z,24.93
2018-09-16T11:06:38.054Z,25.02
2018-09-16T11:07:37.803Z,25.06
2018-09-16T11:08:37.806Z,25.05
2018-09-16T11:09:38.062Z,25.17
2018-09-16T11:10:38.076Z,25.23
2018-09-16T11:11:38.060Z,25.43
2018-09-16T11:12:38.057Z,25.52
2018-09-16T11:13:38.058Z,25.65
2018-09-16T11:14:38.058Z,25.7
2018-09-16T11:15:37.807Z,25.77
2018-09-16T11:16:38.066Z,25.99
2018-09-16T11:17:38.067Z,25.98
2018-09-16T11:18:38.064Z,26.05
2018-09-16T11:19:38.063Z,26.07
2018-09-16T11:20:38.069Z,26.1
2018-09-16T11:21:38.071Z,26.05
2018-09-16T11:22:38.072Z,26.2
2018-09-16T11:23:37.820Z,26.09
2018-09-16T11:24:38.081Z,26.02
2018-09-16T11:25:38.080Z,25.91
2018-09-16T11:26:38.077Z,25.87
2018-09-16T11:27:37.822Z,25.77
2018-09-16T11:28:38.080Z,25.79
2018-09-16T11:29:38.076Z,25.7
2018-09-16T11:30:38.087Z,25.65
2018-09-16T11:31:38.081Z,25.7
2018-09-16T11:32:38.082Z,25.72
2018-09-16T11:33:38.083Z,25.67
2018-09-16T11:34:38.085Z,25.73
2018-09-16T11:35:38.344Z,25.85
2018-09-16T11:36:38.093Z,25.83
2018-09-16T11:37:38.102Z,25.85
2018-09-16T11:38:38.087Z,25.85
2018-09-16T11:39:38.093Z,25.77
2018-09-16T11:40:38.094Z,25.91
2018-09-16T11:41:38.094Z,25.91
2018-09-16T11:42:38.095Z,25.88
2018-09-16T11:43:38.102Z,25.95
2018-09-16T11:44:38.097Z,25.99
2018-09-16T11:45:38.097Z,26.02
2018-09-16T11:46:38.102Z,25.98
2018-09-16T11:47:37.848Z,26.02
2018-09-16T11:48:37.597Z,26.1
2018-09-16T11:49:37.851Z,26.06
2018-09-16T11:50:37.854Z,26.21
2018-09-16T11:51:38.303Z,26.25
2018-09-16T11:52:38.120Z,26.32
2018-09-16T11:53:38.110Z,26.36
2018-09-16T11:54:37.858Z,26.3
2018-09-16T11:55:37.870Z,26.37
2018-09-16T11:56:38.110Z,26.33
2018-09-16T11:57:38.115Z,26.35
2018-09-16T11:58:37.862Z,26.36
2018-09-16T11:59:38.114Z,26.39
2018-09-16T12:00:37.868Z,26.47
2018-09-16T12:01:38.125Z,26.54
2018-09-16T12:02:38.118Z,26.58
2018-09-16T12:03:38.131Z,26.5
2018-09-16T12:04:38.124Z,26.54
2018-09-16T12:05:38.124Z,26.58
2018-09-16T12:06:38.125Z,26.54
2018-09-16T12:07:38.128Z,26.5
2018-09-16T12:08:38.130Z,26.45
2018-09-16T12:09:38.130Z,26.39
2018-09-16T12:10:37.879Z,26.36
2018-09-16T12:11:38.192Z,26.36
2018-09-16T12:12:38.136Z,26.32
2018-09-16T12:13:38.135Z,26.29
2018-09-16T12:14:38.137Z,26.25
2018-09-16T12:15:38.136Z,26.29
2018-09-16T12:16:38.146Z,26.33
2018-09-16T12:17:38.147Z,26.3
2018-09-16T12:18:38.146Z,26.43
2018-09-16T12:19:37.899Z,26.37
2018-09-16T12:20:38.161Z,26.45
2018-09-16T12:21:38.153Z,26.47
2018-09-16T12:22:38.157Z,26.4
2018-09-16T12:23:38.201Z,26.4
2018-09-16T12:24:38.151Z,26.39
2018-09-16T12:25:38.173Z,26.45
2018-09-16T12:26:37.908Z,26.57
2018-09-16T12:27:38.157Z,26.58
2018-09-16T12:28:38.159Z,26.55
2018-09-16T12:29:38.160Z,26.66
2018-09-16T12:30:38.168Z,26.81
2018-09-16T12:31:37.915Z,26.85
2018-09-16T12:32:38.168Z,26.89
2018-09-16T12:33:37.916Z,27.04
2018-09-16T12:34:38.172Z,27.17
2018-09-16T12:35:38.183Z,27.18
2018-09-16T12:36:37.924Z,27.24
2018-09-16T12:37:37.922Z,27.19
2018-09-16T12:38:37.928Z,27.14
2018-09-16T12:39:37.927Z,27.14
2018-09-16T12:40:37.930Z,27.04
2018-09-16T12:41:38.183Z,27.02
2018-09-16T12:42:37.933Z,26.95
2018-09-16T12:43:37.944Z,26.89
2018-09-16T12:44:37.938Z,26.82
2018-09-16T12:45:37.939Z,26.73
2018-09-16T12:46:38.195Z,26.62
2018-09-16T12:47:37.691Z,26.52
2018-09-16T12:48:38.197Z,26.37
2018-09-16T12:49:38.199Z,26.3
2018-09-16T12:50:37.947Z,26.18
2018-09-16T12:51:37.950Z,26.09
2018-09-16T12:52:38.205Z,26.02
2018-09-16T12:53:38.206Z,26.02
2018-09-16T12:54:38.208Z,26.09
2018-09-16T12:55:38.215Z,26.12
2018-09-16T12:56:38.216Z,26.12
2018-09-16T12:57:37.963Z,26.17
2018-09-16T12:58:38.213Z,26.09
2018-09-16T12:59:38.215Z,25.99